• Join FlightAware (Why Join?)
  • Login
  • US Flag 
08:27PM EDT


 

Airport Tracker/Info


-or-


 

Live Flight TrackerFlight Track Log ✈ SKW5543 ✈ 21-Jul-2013 ✈ KSFO - KBOI

Flight Track Log - Related Links

Times and Time Zones

All times are in EDT time to prevent confusion due to time zone crossing. See the SKW5543 flight status page for this flight to view local times or setup timezone preferences in your user account.

Time Position Orientation Groundspeed Altitude Reporting Facility
EDT Latitude Longitude Course Direction KTS MPH feet Rate Location/Type
05:52PM 37.6667 -122.3333 38° Northeast 215 247 2,100  Level Northern Cal TRACON
05:54PM 37.6325 -122.4181 120° Southeast  Level FlightAware Approximate
05:54PM 37.7597 -122.2322 41° Northeast 262 302 6,000  Level Oakland Center
05:55PM 37.6842 -122.2992 38° Northeast  Level FlightAware Approximate
05:55PM 37.8433 -122.1822 25° Northeast 289 333 8,300  Level Oakland Center
05:56PM 37.7869 -122.1964 38° Northeast  Level FlightAware Approximate
05:56PM 37.9042 -122.1186 40° Northeast 287 330 10,400  Level Oakland Center
05:57PM 37.8898 -122.0936 38° Northeast  Level FlightAware Approximate
05:57PM 37.9669 -122.0528 40° Northeast 295 339 11,800  Level Oakland Center
05:58PM 38.0364 -121.9811 39° Northeast 319 367 13,300 1,380 Climbing Oakland Center
05:59PM 38.1072 -121.9061 40° Northeast 331 381 14,700 1,380 Climbing Oakland Center
06:00PM 38.1794 -121.8292 40° Northeast 339 390 16,200 1,680 Climbing Oakland Center
06:01PM 38.2719 -121.7450 36° Northeast 342 394 18,200 1,560 Climbing Oakland Center
06:02PM 38.3536 -121.6781 33° Northeast 346 398 19,500 1,260 Climbing Oakland Center
06:03PM 38.4358 -121.6117 32° Northeast 348 400 20,900 1,200 Climbing Oakland Center
06:04PM 38.5178 -121.5433 33° Northeast 351 404 22,000 960 Climbing Oakland Center
06:05PM 38.5972 -121.4736 34° Northeast 357 411 22,900 780 Climbing Oakland Center
06:06PM 38.6867 -121.4017 32° Northeast 361 415 23,700 660 Climbing Oakland Center
06:07PM 38.7750 -121.3281 33° Northeast 372 428 24,300 540 Climbing Oakland Center
06:08PM 38.8631 -121.2517 34° Northeast 379 436 24,900 480 Climbing Oakland Center
06:09PM 38.9539 -121.1742 34° Northeast 387 445 25,400 540 Climbing Oakland Center
06:10PM 39.0453 -121.0950 34° Northeast 393 452 26,100 540 Climbing Oakland Center
06:11PM 39.1397 -121.0150 33° Northeast 402 463 26,600 480 Climbing Oakland Center
06:12PM 39.2342 -120.9333 34° Northeast 407 468 27,100 480 Climbing Oakland Center
06:13PM 39.3500 -120.8339 34° Northeast 415 478 27,700 480 Climbing Oakland Center
06:14PM 39.4469 -120.7497 34° Northeast 419 482 28,200 360 Climbing Oakland Center
06:15PM 39.5458 -120.6644 34° Northeast 424 488 28,500 360 Climbing Oakland Center
06:16PM 39.6447 -120.5775 34° Northeast 429 494 29,000 360 Climbing Oakland Center
06:18PM 39.7453 -120.4886 34° Northeast 434 499 29,300 300 Climbing Oakland Center
06:19PM 39.8469 -120.4042 33° Northeast 433 498 29,700 240 Climbing Oakland Center
06:20PM 39.9475 -120.3144 34° Northeast 438 504 29,900 420 Climbing Oakland Center
06:21PM 40.0644 -120.2119 34° Northeast 442 509 30,600 480 Climbing Oakland Center
06:22PM 40.1653 -120.1225 34° Northeast 439 505 31,000 420 Climbing Oakland Center
06:23PM 40.2669 -120.0322 34° Northeast 440 506 31,500 420 Climbing Oakland Center
06:24PM 40.3703 -119.9417 34° Northeast 444 511 31,900 240 Climbing Oakland Center
06:25PM 40.4717 -119.8506 34° Northeast 442 509 32,000 120 Climbing Oakland Center
06:26PM 40.5767 -119.7558 34° Northeast 447 514 32,200 240 Climbing Oakland Center
06:27PM 40.6817 -119.6600 35° Northeast 457 526 32,500 240 Climbing Oakland Center
06:28PM 40.7856 -119.5661 34° Northeast 456 525 32,800 240 Climbing Oakland Center
06:29PM 40.8931 -119.4664 35° Northeast 454 522 33,000 60 Climbing Oakland Center
06:30PM 40.9694 -119.3747 42° Northeast 460 529 33,000  Level Salt Lake Center
06:31PM 41.0786 -119.2500 41° Northeast 464 534 33,000  Level Salt Lake Center
06:32PM 41.1744 -119.1408 41° Northeast 468 539 33,000  Level Salt Lake Center
06:33PM 41.2842 -119.0133 41° Northeast 469 540 33,000  Level Salt Lake Center
06:34PM 41.3783 -118.9033 41° Northeast 470 541 33,000  Level Salt Lake Center
06:35PM 41.4889 -118.7758 41° Northeast 470 541 33,000  Level Salt Lake Center
06:36PM 41.5828 -118.6639 42° Northeast 470 541 33,000  Level Salt Lake Center
06:37PM 41.6775 -118.5514 42° Northeast 473 544 33,000  Level Salt Lake Center
06:38PM 41.7886 -118.4200 41° Northeast 476 548 33,000 -240 Level Salt Lake Center
06:39PM 41.8842 -118.3072 41° Northeast 477 549 32,600 -1,320 Descending Salt Lake Center
06:40PM 41.9986 -118.1706 42° Northeast 491 565 30,300 -2,160 Descending Salt Lake Center
06:41PM 42.0994 -118.0481 42° Northeast 504 580 28,200 -1,860 Descending Salt Lake Center
06:42PM 42.2092 -117.9169 41° Northeast 475 547 26,500 -1,620 Descending Salt Lake Center
06:43PM 42.3069 -117.7917 43° Northeast 470 541 24,900 -1,560 Descending Salt Lake Center
06:44PM 42.3989 -117.6814 42° Northeast 462 532 23,300 -1,620 Descending Salt Lake Center
06:45PM 42.5056 -117.5519 42° Northeast 459 528 21,600 -1,620 Descending Salt Lake Center
06:46PM 42.5950 -117.4403 43° Northeast 456 525 20,000 -1,560 Descending Salt Lake Center
06:47PM 42.6986 -117.3114 42° Northeast 451 519 18,400 -1,440 Descending Salt Lake Center
06:48PM 42.7853 -117.2044 42° Northeast 441 507 17,100 -1,380 Descending Salt Lake Center
06:49PM 42.8847 -117.0814 42° Northeast 432 497 15,600 -1,320 Descending Salt Lake Center
06:50PM 42.9683 -116.9761 43° Northeast 427 491 14,400 -1,260 Descending Salt Lake Center
06:51PM 43.0453 -116.8817 42° Northeast 387 445 13,100 -840 Descending Salt Lake Center
06:52PM 43.1253 -116.7803 43° Northeast 354 407 12,700 -480 Descending Salt Lake Center
06:53PM 43.2000 -116.6856 43° Northeast 352 405 12,200 -540 Descending Salt Lake Center
06:54PM 43.2761 -116.5900 42° Northeast 354 407 11,600 -600 Descending Salt Lake Center
06:55PM 43.3469 -116.5000 43° Northeast 335 386 11,000 -1,380 Descending Salt Lake Center
06:57PM 43.4315 -116.3695 48° Northeast  Level FlightAware Approximate
06:57PM 43.4450 -116.3092 36° Northeast 299 344 7,400  Level Salt Lake Center
06:58PM 43.4636 -116.2022 76° East 275 316 6,000 -1,020 Descending Salt Lake Center
07:00PM 43.4781 -116.1122 77° East 241 277 5,400 -780 Descending Salt Lake Center
07:01PM 43.5267 -116.1133 359° North 177 204 4,500 -900 Descending Salt Lake Center
07:04PM 43.5500 -116.2167 36° Northeast  Level FlightAware Approximate